createdAt,value
2019-05-07T00:01:57.175Z,1.00
2019-05-07T00:04:28.153Z,0.90
2019-05-07T00:07:02.370Z,0.90
2019-05-07T00:09:43.252Z,0.90
2019-05-07T00:12:19.098Z,0.90
2019-05-07T00:14:58.938Z,0.90
2019-05-07T00:17:28.870Z,0.80
2019-05-07T00:20:02.292Z,0.70
2019-05-07T00:22:34.384Z,0.60
2019-05-07T00:25:08.438Z,0.40
2019-05-07T00:27:42.770Z,0.20
2019-05-07T00:30:14.131Z,0.10
2019-05-07T00:32:46.156Z,0.10
2019-05-07T00:35:25.954Z,0.00
2019-05-07T00:38:03.506Z,-0.10
2019-05-07T00:40:35.232Z,-0.20
2019-05-07T00:43:12.672Z,-0.20
2019-05-07T00:45:50.254Z,-0.40
2019-05-07T00:48:26.201Z,-0.40
2019-05-07T00:51:19.034Z,-0.40
2019-05-07T00:53:52.085Z,-0.40
2019-05-07T00:56:22.411Z,-0.50
2019-05-07T00:58:52.951Z,-0.50
2019-05-07T01:01:25.110Z,-0.60
2019-05-07T01:03:59.391Z,-0.60
2019-05-07T01:06:30.402Z,-0.50
2019-05-07T01:09:09.526Z,-0.60
2019-05-07T01:11:47.526Z,-0.50
2019-05-07T01:14:19.628Z,-0.50
2019-05-07T01:16:55.182Z,-0.60
2019-05-07T01:19:35.154Z,-0.60
2019-05-07T01:22:12.630Z,-0.60
2019-05-07T01:24:53.307Z,-0.70
2019-05-07T01:27:23.413Z,-0.70
2019-05-07T01:29:53.522Z,-0.70
2019-05-07T01:32:27.866Z,-0.80
2019-05-07T01:35:02.473Z,-0.80
2019-05-07T01:37:43.415Z,-0.90
2019-05-07T01:40:14.459Z,-0.90
2019-05-07T01:42:47.755Z,-0.90
2019-05-07T01:45:17.914Z,-0.90
2019-05-07T01:47:47.994Z,-1.00
2019-05-07T01:50:24.058Z,-1.00
2019-05-07T01:52:55.102Z,-1.10
2019-05-07T01:55:27.134Z,-1.20
2019-05-07T01:57:59.203Z,-1.20
2019-05-07T02:00:29.326Z,-1.20
2019-05-07T02:03:23.116Z,-1.10
2019-05-07T02:05:56.598Z,-1.10
2019-05-07T02:08:45.366Z,-1.10
2019-05-07T02:11:19.074Z,-1.10
2019-05-07T02:13:50.183Z,-1.20
2019-05-07T02:16:24.390Z,-1.30
2019-05-07T02:18:55.477Z,-1.40
2019-05-07T02:21:26.514Z,-1.40
2019-05-07T02:24:03.392Z,-1.50
2019-05-07T02:26:42.852Z,-1.60
2019-05-07T02:29:12.995Z,-1.70
2019-05-07T02:31:45.019Z,-1.70
2019-05-07T02:34:16.036Z,-1.70
2019-05-07T02:36:46.124Z,-1.80
2019-05-07T02:39:27.868Z,-1.80
2019-05-07T02:41:57.970Z,-1.70
2019-05-07T02:44:28.152Z,-1.70
2019-05-07T02:47:04.643Z,-1.50
2019-05-07T02:49:43.931Z,-1.40
2019-05-07T02:52:32.440Z,-1.40
2019-05-07T02:55:10.212Z,-1.50
2019-05-07T02:57:46.418Z,-1.60
2019-05-07T03:00:24.356Z,-1.70
2019-05-07T03:02:54.623Z,-1.80
2019-05-07T03:05:38.928Z,-1.80
2019-05-07T03:08:16.451Z,-1.90
2019-05-07T03:10:47.760Z,-1.90
2019-05-07T03:13:17.923Z,-1.90
2019-05-07T03:15:54.796Z,-1.90
2019-05-07T03:18:33.399Z,-2.00
2019-05-07T03:21:12.762Z,-2.10
2019-05-07T03:24:03.437Z,-2.10
2019-05-07T03:26:36.330Z,-2.20
2019-05-07T03:29:23.621Z,-2.10
2019-05-07T03:31:57.133Z,-2.00
2019-05-07T03:34:36.648Z,-1.90
2019-05-07T03:37:09.215Z,-2.00
2019-05-07T03:40:14.052Z,-2.00
2019-05-07T03:43:13.932Z,-1.90
2019-05-07T03:45:55.234Z,-2.00
2019-05-07T03:48:33.459Z,-2.10
2019-05-07T03:51:03.981Z,-2.20
2019-05-07T03:53:34.359Z,-2.10
2019-05-07T03:56:08.487Z,-2.00
2019-05-07T03:58:43.370Z,-2.00
2019-05-07T04:01:33.456Z,-2.00
2019-05-07T04:04:04.308Z,-2.00
2019-05-07T04:06:46.471Z,-2.00
2019-05-07T04:09:16.625Z,-2.00
2019-05-07T04:11:56.031Z,-2.00
2019-05-07T04:14:27.039Z,-2.00
2019-05-07T04:17:13.296Z,-1.90
2019-05-07T04:19:32.854Z,-1.80
2019-05-07T04:22:04.300Z,-1.70
2019-05-07T04:24:36.181Z,-1.70
2019-05-07T04:27:07.953Z,-1.70
2019-05-07T04:29:42.926Z,-1.60
2019-05-07T04:32:14.559Z,-1.50
2019-05-07T04:34:53.464Z,-1.40
2019-05-07T04:37:38.863Z,-1.20
2019-05-07T04:40:09.491Z,-1.10
2019-05-07T04:42:46.976Z,-1.10
2019-05-07T04:45:19.408Z,-1.00
2019-05-07T04:47:49.484Z,-0.90
2019-05-07T04:50:42.025Z,-0.70
2019-05-07T04:53:02.892Z,-0.60
2019-05-07T04:55:33.803Z,-0.50
2019-05-07T04:58:08.715Z,-0.40
2019-05-07T05:00:43.234Z,-0.30
2019-05-07T05:03:26.028Z,-0.10
2019-05-07T05:06:02.888Z,0.00
2019-05-07T05:08:43.467Z,0.20
2019-05-07T05:11:47.007Z,0.50
2019-05-07T05:14:22.899Z,0.70
2019-05-07T05:16:53.079Z,0.90
2019-05-07T05:19:23.189Z,1.10
2019-05-07T05:22:24.914Z,1.30
2019-05-07T05:25:23.534Z,1.60
2019-05-07T05:27:54.591Z,1.90
2019-05-07T05:30:29.346Z,2.20
2019-05-07T05:33:02.231Z,2.60
2019-05-07T05:35:38.275Z,3.10
2019-05-07T05:38:09.348Z,3.60
2019-05-07T05:40:52.240Z,4.10
2019-05-07T05:43:32.154Z,4.60
2019-05-07T05:46:04.295Z,4.80
2019-05-07T05:48:34.367Z,5.10
2019-05-07T05:51:14.391Z,5.30
2019-05-07T05:53:52.453Z,5.70
2019-05-07T05:56:47.372Z,6.00
2019-05-07T05:59:32.493Z,6.50
2019-05-07T06:02:07.575Z,7.00
2019-05-07T06:04:52.818Z,7.40
2019-05-07T06:07:33.540Z,7.60
2019-05-07T06:10:17.891Z,7.70
2019-05-07T06:12:52.783Z,7.70
2019-05-07T06:15:27.463Z,7.90
2019-05-07T06:18:06.889Z,8.20
2019-05-07T06:20:39.004Z,8.20
2019-05-07T06:23:15.501Z,8.40
2019-05-07T06:25:57.967Z,8.40
2019-05-07T06:28:32.851Z,8.30
2019-05-07T06:31:02.287Z,8.40
2019-05-07T06:33:32.538Z,8.70
2019-05-07T06:36:02.940Z,9.00
2019-05-07T06:38:35.748Z,9.30
2019-05-07T06:41:23.327Z,9.70
2019-05-07T06:43:57.568Z,10.10
2019-05-07T06:46:33.484Z,10.30
2019-05-07T06:49:12.528Z,10.50
2019-05-07T06:51:44.034Z,10.70
2019-05-07T06:54:15.084Z,10.80
2019-05-07T06:56:48.801Z,11.00
2019-05-07T06:59:19.857Z,11.10
2019-05-07T07:02:13.764Z,11.30
2019-05-07T07:05:08.528Z,11.50
2019-05-07T07:07:55.524Z,11.90
2019-05-07T07:10:33.300Z,12.20
2019-05-07T07:13:06.389Z,12.50
2019-05-07T07:15:42.749Z,12.70
2019-05-07T07:18:23.087Z,12.80
2019-05-07T07:21:02.303Z,13.10
2019-05-07T07:23:32.765Z,13.30
2019-05-07T07:26:08.650Z,13.70
2019-05-07T07:28:42.927Z,13.80
2019-05-07T07:31:22.658Z,14.10
2019-05-07T07:33:57.352Z,14.40
2019-05-07T07:36:42.228Z,14.60
2019-05-07T07:39:12.911Z,14.80
2019-05-07T07:41:52.213Z,15.00
2019-05-07T07:44:23.402Z,15.10
2019-05-07T07:46:53.476Z,15.50
2019-05-07T07:49:32.329Z,15.60
2019-05-07T07:52:04.345Z,14.80
2019-05-07T07:54:43.556Z,15.30
2019-05-07T07:57:32.417Z,15.40
2019-05-07T08:00:08.328Z,15.50
2019-05-07T08:02:42.423Z,15.30
2019-05-07T08:05:13.489Z,14.60
2019-05-07T08:07:49.340Z,14.80
2019-05-07T08:10:22.009Z,14.90
2019-05-07T08:12:52.557Z,15.10
2019-05-07T08:15:24.691Z,15.20
2019-05-07T08:17:56.096Z,15.40
2019-05-07T08:20:35.013Z,15.60
2019-05-07T08:23:05.163Z,16.10
2019-05-07T08:25:47.810Z,16.90
2019-05-07T08:28:23.515Z,17.30
2019-05-07T08:30:58.084Z,17.70
2019-05-07T08:33:35.613Z,17.60
2019-05-07T08:36:14.722Z,17.80
2019-05-07T08:38:52.766Z,16.60
2019-05-07T08:41:26.647Z,17.50
2019-05-07T08:44:11.566Z,17.80
2019-05-07T08:46:55.257Z,18.30
2019-05-07T08:49:36.943Z,18.00
2019-05-07T08:52:03.097Z,18.50
2019-05-07T08:54:35.561Z,19.80
2019-05-07T08:57:12.248Z,20.50
2019-05-07T08:59:57.148Z,20.30
2019-05-07T09:02:15.399Z,19.20
2019-05-07T09:04:48.479Z,18.20
2019-05-07T09:07:22.029Z,17.30
2019-05-07T09:09:58.059Z,16.90
2019-05-07T09:12:28.743Z,16.70
2019-05-07T09:15:06.314Z,18.00
2019-05-07T09:17:39.351Z,19.70
2019-05-07T09:20:16.635Z,21.00
2019-05-07T09:22:51.706Z,21.90
2019-05-07T09:25:28.039Z,21.60
2019-05-07T09:27:58.139Z,20.30
2019-05-07T09:30:54.495Z,18.80
2019-05-07T09:33:32.163Z,17.60
2019-05-07T09:36:07.971Z,16.50
2019-05-07T09:38:38.979Z,16.70
2019-05-07T09:41:12.071Z,17.00
2019-05-07T09:43:42.532Z,18.60
2019-05-07T09:46:12.646Z,19.90
2019-05-07T09:48:52.358Z,20.00
2019-05-07T09:51:23.520Z,19.70
2019-05-07T09:53:53.603Z,19.80
2019-05-07T09:56:26.707Z,19.00
2019-05-07T09:59:16.127Z,18.80
2019-05-07T10:01:48.203Z,21.70
2019-05-07T10:04:18.404Z,23.50
2019-05-07T10:06:51.896Z,23.60
2019-05-07T10:09:25.559Z,23.40
2019-05-07T10:11:57.291Z,21.20
2019-05-07T10:14:27.507Z,19.70
2019-05-07T10:17:14.418Z,19.80
2019-05-07T10:19:44.648Z,19.70
2019-05-07T10:22:15.803Z,19.40
2019-05-07T10:24:45.879Z,18.60
2019-05-07T10:27:16.165Z,17.90
2019-05-07T10:29:48.007Z,17.30
2019-05-07T10:32:18.243Z,16.90
2019-05-07T10:34:48.803Z,17.50
2019-05-07T10:37:18.955Z,17.40
2019-05-07T10:39:49.223Z,17.90
2019-05-07T10:42:22.600Z,18.00
2019-05-07T10:45:10.163Z,19.00
2019-05-07T10:47:41.961Z,19.00
2019-05-07T10:50:17.055Z,17.50
2019-05-07T10:52:47.275Z,16.70
2019-05-07T10:55:17.569Z,16.40
2019-05-07T10:57:47.663Z,16.10
2019-05-07T11:00:22.588Z,16.00
2019-05-07T11:02:53.142Z,15.80
2019-05-07T11:05:23.229Z,15.60
2019-05-07T11:07:53.983Z,15.90
2019-05-07T11:10:24.155Z,16.10
2019-05-07T11:12:54.311Z,16.50
2019-05-07T11:15:24.420Z,17.10
2019-05-07T11:18:02.715Z,17.40
2019-05-07T11:20:45.641Z,17.90
2019-05-07T11:23:05.011Z,19.00
2019-05-07T11:25:35.271Z,19.50
2019-05-07T11:28:05.567Z,20.00
2019-05-07T11:30:36.689Z,19.90
2019-05-07T11:33:08.701Z,20.10
2019-05-07T11:35:38.783Z,21.10
2019-05-07T11:38:18.805Z,21.10
2019-05-07T11:40:42.732Z,21.90
2019-05-07T11:43:22.127Z,21.30
2019-05-07T11:45:54.334Z,19.60
2019-05-07T11:48:26.380Z,18.80
2019-05-07T11:51:03.796Z,17.90
2019-05-07T11:53:32.757Z,17.80
2019-05-07T11:56:02.850Z,18.10
2019-05-07T11:58:32.937Z,17.60
2019-05-07T12:01:05.036Z,17.90
2019-05-07T12:03:37.067Z,18.00
2019-05-07T12:06:07.155Z,17.70
2019-05-07T12:08:44.967Z,17.60
2019-05-07T12:11:09.127Z,17.70
2019-05-07T12:13:42.540Z,17.70
2019-05-07T12:16:14.103Z,17.80
2019-05-07T12:18:43.759Z,17.90
2019-05-07T12:21:20.665Z,17.90
2019-05-07T12:23:45.753Z,17.80
2019-05-07T12:26:15.867Z,17.90
2019-05-07T12:28:46.039Z,17.80
2019-05-07T12:31:33.728Z,17.70
2019-05-07T12:34:08.515Z,17.60
2019-05-07T12:36:38.615Z,17.50
2019-05-07T12:39:09.292Z,17.50
2019-05-07T12:41:39.451Z,17.50
2019-05-07T12:44:13.030Z,17.90
2019-05-07T12:46:43.211Z,18.00
2019-05-07T12:49:13.318Z,17.80
2019-05-07T12:51:45.047Z,17.30
2019-05-07T12:54:19.535Z,17.00
2019-05-07T12:56:51.874Z,16.80
2019-05-07T12:59:21.883Z,16.60
2019-05-07T13:01:56.523Z,16.70
2019-05-07T13:04:32.478Z,16.60
2019-05-07T13:07:16.976Z,16.60
2019-05-07T13:09:47.067Z,17.00
2019-05-07T13:12:18.131Z,17.20
2019-05-07T13:14:48.220Z,17.60
2019-05-07T13:17:22.424Z,17.90
2019-05-07T13:19:52.711Z,17.80
2019-05-07T13:22:22.819Z,17.50
2019-05-07T13:24:53.098Z,17.40
2019-05-07T13:27:23.287Z,17.30
2019-05-07T13:29:53.643Z,17.10
2019-05-07T13:32:27.143Z,17.20
2019-05-07T13:34:57.675Z,18.20
2019-05-07T13:37:32.495Z,18.50
2019-05-07T13:40:12.563Z,18.30
2019-05-07T13:42:52.221Z,17.60
2019-05-07T13:45:24.163Z,17.60
2019-05-07T13:47:55.917Z,17.70
2019-05-07T13:50:26.055Z,18.00
2019-05-07T13:52:56.179Z,18.70
2019-05-07T13:55:26.251Z,19.10
2019-05-07T13:57:58.303Z,19.70
2019-05-07T14:00:32.565Z,20.00
2019-05-07T14:03:03.220Z,20.60
2019-05-07T14:05:33.516Z,20.70
2019-05-07T14:08:04.660Z,20.50
2019-05-07T14:10:35.079Z,20.80
2019-05-07T14:13:11.457Z,22.00
2019-05-07T14:15:45.715Z,22.70
2019-05-07T14:18:17.821Z,22.80
2019-05-07T14:20:48.571Z,22.70
2019-05-07T14:23:21.752Z,21.40
2019-05-07T14:25:54.775Z,21.50
2019-05-07T14:28:24.879Z,23.50
2019-05-07T14:30:54.956Z,23.80
2019-05-07T14:33:46.895Z,21.70
2019-05-07T14:36:18.640Z,20.00
2019-05-07T14:38:52.012Z,18.50
2019-05-07T14:41:25.353Z,17.60
2019-05-07T14:43:58.383Z,16.90
2019-05-07T14:46:45.614Z,16.60
2019-05-07T14:49:07.620Z,16.40
2019-05-07T14:51:37.910Z,16.10
2019-05-07T14:54:09.135Z,16.10
2019-05-07T14:56:39.525Z,16.20
2019-05-07T14:59:12.810Z,16.30
2019-05-07T15:01:43.932Z,16.20
2019-05-07T15:04:22.037Z,15.60
2019-05-07T15:06:52.933Z,15.30
2019-05-07T15:09:24.279Z,15.00
2019-05-07T15:12:02.206Z,14.60
2019-05-07T15:14:39.428Z,14.40
2019-05-07T15:17:12.895Z,14.20
2019-05-07T15:19:43.214Z,14.20
2019-05-07T15:22:24.157Z,14.20
2019-05-07T15:24:54.324Z,14.40
2019-05-07T15:27:29.612Z,14.60
2019-05-07T15:30:02.125Z,14.90
2019-05-07T15:32:33.516Z,15.10
2019-05-07T15:35:04.884Z,15.20
2019-05-07T15:37:35.044Z,15.40
2019-05-07T15:40:09.159Z,15.60
2019-05-07T15:42:39.274Z,15.80
2019-05-07T15:45:17.072Z,15.70
2019-05-07T15:47:48.981Z,15.70
2019-05-07T15:50:19.131Z,15.40
2019-05-07T15:52:58.141Z,15.30
2019-05-07T15:55:28.796Z,15.30
2019-05-07T15:57:59.724Z,15.20
2019-05-07T16:00:33.656Z,14.90
2019-05-07T16:03:18.155Z,14.80
2019-05-07T16:05:48.234Z,14.80
2019-05-07T16:08:22.664Z,14.70
2019-05-07T16:10:53.215Z,14.90
2019-05-07T16:13:25.100Z,15.00
2019-05-07T16:15:57.424Z,14.90
2019-05-07T16:18:57.408Z,15.00
2019-05-07T16:21:27.592Z,14.90
2019-05-07T16:24:04.212Z,14.80
2019-05-07T16:26:34.345Z,14.70
2019-05-07T16:29:04.814Z,14.70
2019-05-07T16:31:35.029Z,14.30
2019-05-07T16:34:05.112Z,14.10
2019-05-07T16:36:36.221Z,13.80
2019-05-07T16:39:07.687Z,13.60
2019-05-07T16:41:38.709Z,13.50
2019-05-07T16:44:08.801Z,13.60
2019-05-07T16:46:39.244Z,13.70
2019-05-07T16:49:14.403Z,13.80
2019-05-07T16:51:47.436Z,13.80
2019-05-07T16:54:17.496Z,14.30
2019-05-07T16:57:05.628Z,14.50
2019-05-07T16:59:36.673Z,14.50
2019-05-07T17:02:08.417Z,14.40
2019-05-07T17:05:08.064Z,14.20
2019-05-07T17:07:42.825Z,14.00
2019-05-07T17:10:22.916Z,13.80
2019-05-07T17:12:53.053Z,13.50
2019-05-07T17:15:28.840Z,13.20
2019-05-07T17:18:02.789Z,12.90
2019-05-07T17:20:45.268Z,12.50
2019-05-07T17:23:15.388Z,12.20
2019-05-07T17:25:56.544Z,12.10
2019-05-07T17:28:27.795Z,11.90
2019-05-07T17:31:03.744Z,11.90
2019-05-07T17:33:42.313Z,11.90
2019-05-07T17:36:12.756Z,11.90
2019-05-07T17:38:43.025Z,12.00
2019-05-07T17:41:23.673Z,12.10
2019-05-07T17:43:54.894Z,12.40
2019-05-07T17:46:25.936Z,12.60
2019-05-07T17:48:56.022Z,12.70
2019-05-07T17:51:44.972Z,12.70
2019-05-07T17:54:15.356Z,12.60
2019-05-07T17:56:46.472Z,12.30
2019-05-07T17:59:16.604Z,11.90
2019-05-07T18:01:55.260Z,11.60
2019-05-07T18:04:29.164Z,11.30
2019-05-07T18:07:00.480Z,11.00
2019-05-07T18:09:31.861Z,10.70
2019-05-07T18:12:03.124Z,10.40
2019-05-07T18:14:35.223Z,10.10
2019-05-07T18:17:07.876Z,9.90
2019-05-07T18:19:38.916Z,9.70
2019-05-07T18:22:12.795Z,9.50
2019-05-07T18:24:42.760Z,9.30
2019-05-07T18:27:15.437Z,9.20
2019-05-07T18:29:52.251Z,9.00
2019-05-07T18:32:29.504Z,8.90
2019-05-07T18:35:02.386Z,8.70
2019-05-07T18:37:34.294Z,8.50
2019-05-07T18:40:18.401Z,8.30
2019-05-07T18:42:48.568Z,8.10
2019-05-07T18:45:18.680Z,8.00
2019-05-07T18:47:48.824Z,7.90
2019-05-07T18:50:18.988Z,7.70
2019-05-07T18:52:52.357Z,7.50
2019-05-07T18:55:22.841Z,7.30
2019-05-07T18:57:53.088Z,7.10
2019-05-07T19:00:25.126Z,7.00
2019-05-07T19:03:03.165Z,6.70
2019-05-07T19:05:32.874Z,6.50
2019-05-07T19:08:08.077Z,6.20
2019-05-07T19:10:35.784Z,6.00
2019-05-07T19:13:06.572Z,5.90
2019-05-07T19:15:36.672Z,6.00
2019-05-07T19:18:12.957Z,5.90
2019-05-07T19:20:42.508Z,5.80
2019-05-07T19:23:13.008Z,5.60
2019-05-07T19:25:48.956Z,5.50
2019-05-07T19:28:19.077Z,5.40
2019-05-07T19:30:52.913Z,5.30
2019-05-07T19:33:26.690Z,5.30
2019-05-07T19:35:55.078Z,5.20
2019-05-07T19:38:32.456Z,5.10
2019-05-07T19:41:04.609Z,5.10
2019-05-07T19:43:37.708Z,5.10
2019-05-07T19:46:07.965Z,5.10
2019-05-07T19:48:38.976Z,4.90
2019-05-07T19:51:09.060Z,4.80
2019-05-07T19:53:39.156Z,4.70
2019-05-07T19:56:10.872Z,4.70
2019-05-07T19:58:44.108Z,4.70
2019-05-07T20:01:18.589Z,4.60
2019-05-07T20:03:48.656Z,4.50
2019-05-07T20:06:18.756Z,4.40
2019-05-07T20:08:48.925Z,4.30
2019-05-07T20:11:42.487Z,4.30
2019-05-07T20:14:13.032Z,4.20
2019-05-07T20:16:42.616Z,4.20
2019-05-07T20:19:22.967Z,4.10
2019-05-07T20:21:53.148Z,4.10
2019-05-07T20:24:24.160Z,4.00
2019-05-07T20:26:54.240Z,3.90
2019-05-07T20:29:32.531Z,3.90
2019-05-07T20:32:03.566Z,3.80
2019-05-07T20:34:34.568Z,3.80
2019-05-07T20:37:05.668Z,3.70
2019-05-07T20:39:42.808Z,3.60
2019-05-07T20:42:14.858Z,3.50
2019-05-07T20:44:45.908Z,3.70
2019-05-07T20:47:16.988Z,3.90
2019-05-07T20:50:00.057Z,4.20
2019-05-07T20:52:29.281Z,4.60
2019-05-07T20:55:01.954Z,4.90
2019-05-07T20:57:36.416Z,5.20
2019-05-07T21:00:14.253Z,5.40
2019-05-07T21:03:23.784Z,5.60
2019-05-07T21:05:54.092Z,5.70
2019-05-07T21:08:24.541Z,5.80
2019-05-07T21:10:54.710Z,5.70
2019-05-07T21:13:35.007Z,5.40
2019-05-07T21:16:05.568Z,5.20
2019-05-07T21:18:36.593Z,5.00
2019-05-07T21:21:12.685Z,4.80
2019-05-07T21:23:43.365Z,4.70
2019-05-07T21:26:13.840Z,4.70
2019-05-07T21:28:49.700Z,4.60
2019-05-07T21:31:19.788Z,4.50
2019-05-07T21:33:52.606Z,4.30
2019-05-07T21:36:23.605Z,4.20
2019-05-07T21:38:54.693Z,4.20
2019-05-07T21:41:28.413Z,4.20
2019-05-07T21:44:03.140Z,4.40
2019-05-07T21:46:35.148Z,4.60
2019-05-07T21:49:08.188Z,4.80
2019-05-07T21:51:38.280Z,4.80
2019-05-07T21:54:23.690Z,4.70
2019-05-07T21:57:02.157Z,4.70
2019-05-07T21:59:35.821Z,4.80
2019-05-07T22:02:12.697Z,5.00
2019-05-07T22:04:44.789Z,5.10
2019-05-07T22:07:14.970Z,5.20
2019-05-07T22:09:45.068Z,5.20
2019-05-07T22:12:17.069Z,5.30
2019-05-07T22:14:47.160Z,5.30
2019-05-07T22:17:26.476Z,5.30
2019-05-07T22:19:56.576Z,5.20
2019-05-07T22:22:29.356Z,5.10
2019-05-07T22:24:59.446Z,5.00
2019-05-07T22:27:32.748Z,5.00
2019-05-07T22:30:06.132Z,4.90
2019-05-07T22:32:54.612Z,4.90
2019-05-07T22:35:31.388Z,4.90
2019-05-07T22:38:03.763Z,5.00
2019-05-07T22:40:33.272Z,5.30
2019-05-07T22:43:12.994Z,5.40
2019-05-07T22:45:43.121Z,5.50
2019-05-07T22:48:16.293Z,5.60
2019-05-07T22:50:54.184Z,5.70
2019-05-07T22:53:24.272Z,5.60
2019-05-07T22:55:54.361Z,5.60
2019-05-07T22:58:35.440Z,5.60
2019-05-07T23:01:07.372Z,5.70
2019-05-07T23:03:44.324Z,5.70
2019-05-07T23:06:18.560Z,5.70
2019-05-07T23:08:49.644Z,5.60
2019-05-07T23:11:19.741Z,5.50
2019-05-07T23:13:55.017Z,5.50
2019-05-07T23:16:25.992Z,5.50
2019-05-07T23:18:57.276Z,5.60
2019-05-07T23:21:29.308Z,5.50
2019-05-07T23:24:01.380Z,5.50
2019-05-07T23:26:48.137Z,5.50
2019-05-07T23:29:12.340Z,5.60
2019-05-07T23:31:52.900Z,5.50
2019-05-07T23:34:22.392Z,5.50
2019-05-07T23:36:53.422Z,5.50
2019-05-07T23:39:31.180Z,5.50
2019-05-07T23:42:03.855Z,5.50
2019-05-07T23:44:41.449Z,5.50
2019-05-07T23:47:12.682Z,5.50
2019-05-07T23:49:43.106Z,5.40
2019-05-07T23:52:22.617Z,5.50
2019-05-07T23:54:58.528Z,5.50
2019-05-07T23:57:34.664Z,5.50
